createdAt,value
2018-11-28T00:01:26.570Z,51.75
2018-11-28T00:03:54.699Z,48.17
2018-11-28T00:06:22.790Z,52.70
2018-11-28T00:08:50.982Z,50.50
2018-11-28T00:11:19.159Z,48.78
2018-11-28T00:13:47.280Z,49.03
2018-11-28T00:16:15.491Z,50.73
2018-11-28T00:18:43.603Z,52.17
2018-11-28T00:21:11.731Z,47.73
2018-11-28T00:23:39.854Z,52.40
2018-11-28T00:26:08.071Z,53.48
2018-11-28T00:28:36.169Z,50.75
2018-11-28T00:31:04.435Z,49.45
2018-11-28T00:33:32.703Z,49.53
2018-11-28T00:36:00.851Z,50.70
2018-11-28T00:38:28.974Z,52.58
2018-11-28T00:40:57.233Z,49.27
2018-11-28T00:43:25.355Z,47.15
2018-11-28T00:45:53.719Z,47.27
2018-11-28T00:48:21.847Z,51.03
2018-11-28T00:50:49.963Z,49.80
2018-11-28T00:53:18.075Z,48.17
2018-11-28T00:55:48.475Z,50.92
2018-11-28T00:58:14.418Z,50.10
2018-11-28T01:00:42.543Z,48.17
2018-11-28T01:03:10.781Z,50.52
2018-11-28T01:05:38.931Z,48.95
2018-11-28T01:08:07.112Z,46.98
2018-11-28T01:10:35.251Z,52.13
2018-11-28T01:13:03.428Z,51.73
2018-11-28T01:15:31.543Z,50.53
2018-11-28T01:17:59.647Z,50.30
2018-11-28T01:20:27.778Z,50.85
2018-11-28T01:22:55.925Z,51.13
2018-11-28T01:25:24.114Z,52.53
2018-11-28T01:27:52.565Z,53.52
2018-11-28T01:30:21.884Z,47.80
2018-11-28T01:32:50.182Z,48.13
2018-11-28T01:35:19.095Z,47.85
2018-11-28T01:37:47.264Z,47.35
2018-11-28T01:40:17.199Z,49.63
2018-11-28T01:42:45.402Z,49.53
2018-11-28T01:45:15.331Z,45.23
2018-11-28T01:47:43.627Z,48.10
2018-11-28T01:50:12.780Z,48.20
2018-11-28T01:52:40.970Z,48.65
2018-11-28T01:55:13.045Z,52.38
2018-11-28T01:57:41.220Z,48.70
2018-11-28T02:00:17.899Z,49.48
2018-11-28T02:02:47.416Z,47.98
2018-11-28T02:05:15.611Z,49.00
2018-11-28T02:07:43.740Z,49.67
2018-11-28T02:10:13.728Z,56.45
2018-11-28T02:12:41.875Z,58.52
2018-11-28T02:15:15.120Z,57.87
2018-11-28T02:17:43.262Z,64.00
2018-11-28T02:20:13.225Z,65.12
2018-11-28T02:22:41.427Z,59.77
2018-11-28T02:25:13.654Z,67.15
2018-11-28T02:27:41.828Z,54.80
2018-11-28T02:30:12.838Z,56.17
2018-11-28T02:32:40.984Z,59.13
2018-11-28T02:35:10.206Z,53.25
2018-11-28T02:37:38.647Z,52.13
2018-11-28T02:40:08.395Z,55.08
2018-11-28T02:42:36.546Z,58.50
2018-11-28T02:45:21.527Z,59.88
2018-11-28T02:47:50.277Z,63.70
2018-11-28T02:50:18.358Z,62.20
2018-11-28T02:52:46.476Z,62.65
2018-11-28T02:55:15.247Z,53.50
2018-11-28T02:57:45.432Z,50.70
2018-11-28T03:00:16.664Z,56.70
2018-11-28T03:02:44.801Z,59.80
2018-11-28T03:05:13.161Z,57.27
2018-11-28T03:07:41.380Z,57.15
2018-11-28T03:10:25.891Z,52.62
2018-11-28T03:12:54.036Z,48.60
2018-11-28T03:15:27.766Z,50.43
2018-11-28T03:17:55.917Z,52.85
2018-11-28T03:20:24.107Z,53.25
2018-11-28T03:22:52.259Z,51.60
2018-11-28T03:25:20.376Z,50.75
2018-11-28T03:27:48.476Z,51.55
2018-11-28T03:30:16.657Z,52.38
2018-11-28T03:32:44.797Z,49.93
2018-11-28T03:35:14.251Z,47.33
2018-11-28T03:37:42.360Z,52.93
2018-11-28T03:40:10.525Z,53.48
2018-11-28T03:42:38.675Z,49.15
2018-11-28T03:45:10.950Z,46.10
2018-11-28T03:47:39.179Z,45.08
2018-11-28T03:50:08.614Z,48.17
2018-11-28T03:52:37.152Z,48.73
2018-11-28T03:55:07.029Z,49.83
2018-11-28T03:57:35.135Z,51.68
2018-11-28T04:00:04.079Z,47.05
2018-11-28T04:02:32.254Z,46.83
2018-11-28T04:05:00.349Z,47.17
2018-11-28T04:07:28.546Z,47.15
2018-11-28T04:09:56.661Z,50.25
2018-11-28T04:12:24.814Z,53.63
2018-11-28T04:14:52.934Z,53.98
2018-11-28T04:17:21.034Z,54.53
2018-11-28T04:19:49.128Z,49.95
2018-11-28T04:22:17.240Z,51.50
2018-11-28T04:24:45.445Z,55.95
2018-11-28T04:27:13.679Z,55.03
2018-11-28T04:29:41.802Z,53.60
2018-11-28T04:32:10.050Z,56.27
2018-11-28T04:34:38.174Z,53.68
2018-11-28T04:37:07.023Z,54.23
2018-11-28T04:39:35.210Z,57.67
2018-11-28T04:42:03.362Z,59.50
2018-11-28T04:44:33.016Z,58.85
2018-11-28T04:47:01.187Z,58.70
2018-11-28T04:49:29.375Z,61.60
2018-11-28T04:51:57.476Z,66.47
2018-11-28T04:54:25.682Z,58.38
2018-11-28T04:56:53.767Z,63.20
2018-11-28T04:59:21.849Z,56.40
2018-11-28T05:01:49.938Z,57.25
2018-11-28T05:04:18.118Z,57.83
2018-11-28T05:07:50.302Z,56.43
2018-11-28T05:10:20.479Z,55.85
2018-11-28T05:12:48.826Z,53.48
2018-11-28T05:15:17.930Z,53.13
2018-11-28T05:17:48.043Z,56.23
2018-11-28T05:20:18.146Z,59.93
2018-11-28T05:22:46.256Z,60.88
2018-11-28T05:25:21.247Z,56.77
2018-11-28T05:27:50.169Z,59.65
2018-11-28T05:30:19.188Z,52.88
2018-11-28T05:32:48.375Z,56.73
2018-11-28T05:35:17.784Z,51.48
2018-11-28T05:37:47.140Z,59.00
2018-11-28T05:40:24.870Z,64.35
2018-11-28T05:42:53.119Z,67.45
2018-11-28T05:45:21.316Z,59.35
2018-11-28T05:47:49.520Z,57.83
2018-11-28T05:50:21.602Z,60.98
2018-11-28T05:52:49.819Z,64.33
2018-11-28T05:55:18.988Z,61.55
2018-11-28T05:57:47.158Z,75.28
2018-11-28T06:00:23.168Z,69.50
2018-11-28T06:02:51.311Z,69.27
2018-11-28T06:05:19.403Z,68.75
2018-11-28T06:07:47.555Z,69.07
2018-11-28T06:10:15.619Z,61.88
2018-11-28T06:12:43.837Z,67.42
2018-11-28T06:15:12.423Z,68.47
2018-11-28T06:17:40.567Z,56.10
2018-11-28T06:20:13.802Z,65.10
2018-11-28T06:22:41.896Z,60.60
2018-11-28T06:25:16.130Z,61.50
2018-11-28T06:27:40.954Z,57.17
2018-11-28T06:30:10.663Z,60.92
2018-11-28T06:32:38.807Z,66.17
2018-11-28T06:35:07.936Z,76.10
2018-11-28T06:37:36.443Z,79.25
2018-11-28T06:40:07.130Z,69.05
2018-11-28T06:42:35.254Z,70.75
2018-11-28T06:45:03.374Z,66.07
2018-11-28T06:47:31.492Z,74.67
2018-11-28T06:49:59.689Z,71.97
2018-11-28T06:52:27.807Z,66.10
2018-11-28T06:54:55.908Z,78.40
2018-11-28T06:57:24.055Z,81.20
2018-11-28T06:59:52.166Z,67.03
2018-11-28T07:02:20.314Z,69.58
2018-11-28T07:04:48.428Z,67.60
2018-11-28T07:07:16.539Z,72.53
2018-11-28T07:09:44.747Z,72.27
2018-11-28T07:12:12.847Z,65.35
2018-11-28T07:14:41.036Z,72.32
2018-11-28T07:17:09.263Z,64.75
2018-11-28T07:19:37.468Z,75.87
2018-11-28T07:22:05.591Z,65.60
2018-11-28T07:24:33.851Z,61.53
2018-11-28T07:27:01.931Z,61.05
2018-11-28T07:29:30.104Z,67.00
2018-11-28T07:31:58.227Z,68.40
2018-11-28T07:34:26.400Z,61.33
2018-11-28T07:36:54.523Z,61.40
2018-11-28T07:39:22.662Z,53.98
2018-11-28T07:41:50.763Z,51.48
2018-11-28T07:44:18.875Z,52.38
2018-11-28T07:46:46.958Z,58.15
2018-11-28T07:49:15.180Z,58.10
2018-11-28T07:51:43.304Z,59.03
2018-11-28T07:54:11.419Z,59.50
2018-11-28T07:56:39.541Z,56.60
2018-11-28T07:59:07.695Z,52.20
2018-11-28T08:01:35.847Z,52.73
2018-11-28T08:04:04.017Z,56.28
2018-11-28T08:06:32.192Z,57.43
2018-11-28T08:09:00.253Z,55.50
2018-11-28T08:11:28.343Z,52.58
2018-11-28T08:13:56.464Z,57.67
2018-11-28T08:16:24.595Z,53.85
2018-11-28T08:18:52.886Z,55.38
2018-11-28T08:21:21.024Z,54.63
2018-11-28T08:23:49.124Z,53.08
2018-11-28T08:26:17.223Z,55.48
2018-11-28T08:28:45.347Z,55.30
2018-11-28T08:31:13.467Z,53.10
2018-11-28T08:33:41.583Z,50.28
2018-11-28T08:36:09.808Z,51.53
2018-11-28T08:38:37.893Z,52.90
2018-11-28T08:41:06.251Z,56.80
2018-11-28T08:43:34.431Z,55.45
2018-11-28T08:46:02.587Z,53.42
2018-11-28T08:48:30.851Z,53.33
2018-11-28T08:50:59.127Z,51.53
2018-11-28T08:53:27.219Z,51.08
2018-11-28T08:55:55.327Z,50.67
2018-11-28T08:58:23.543Z,52.83
2018-11-28T09:00:51.696Z,50.50
2018-11-28T09:03:19.806Z,48.78
2018-11-28T09:05:48.015Z,52.85
2018-11-28T09:08:16.147Z,50.35
2018-11-28T09:10:44.395Z,50.83
2018-11-28T09:13:12.515Z,48.33
2018-11-28T09:15:40.628Z,50.40
2018-11-28T09:18:08.824Z,48.85
2018-11-28T09:20:36.923Z,47.25
2018-11-28T09:23:06.094Z,50.43
2018-11-28T09:25:34.286Z,47.50
2018-11-28T09:28:02.486Z,46.42
2018-11-28T09:30:30.599Z,47.93
2018-11-28T09:32:58.788Z,49.83
2018-11-28T09:35:26.944Z,47.53
2018-11-28T09:37:55.037Z,46.02
2018-11-28T09:40:24.137Z,49.47
2018-11-28T09:42:53.290Z,48.35
2018-11-28T09:45:21.551Z,46.23
2018-11-28T09:47:49.672Z,47.77
2018-11-28T09:50:19.668Z,44.85
2018-11-28T09:52:47.776Z,45.83
2018-11-28T09:55:19.963Z,44.27
2018-11-28T09:57:48.111Z,47.13
2018-11-28T10:00:23.666Z,51.13
2018-11-28T10:02:52.679Z,49.13
2018-11-28T10:05:23.993Z,48.60
2018-11-28T10:07:52.116Z,46.83
2018-11-28T10:10:20.269Z,46.85
2018-11-28T10:12:48.471Z,48.13
2018-11-28T10:15:20.467Z,45.15
2018-11-28T10:17:48.731Z,47.80
2018-11-28T10:20:17.593Z,46.98
2018-11-28T10:22:46.030Z,46.53
2018-11-28T10:25:14.995Z,47.25
2018-11-28T10:27:43.937Z,47.17
2018-11-28T10:30:19.233Z,49.60
2018-11-28T10:32:47.936Z,46.88
2018-11-28T10:35:16.066Z,45.83
2018-11-28T10:37:44.146Z,44.18
2018-11-28T10:40:13.591Z,41.70
2018-11-28T10:42:41.725Z,43.17
2018-11-28T10:45:11.585Z,41.80
2018-11-28T10:47:39.759Z,41.88
2018-11-28T10:50:10.676Z,39.53
2018-11-28T10:52:39.223Z,42.07
2018-11-28T10:55:09.384Z,41.95
2018-11-28T10:57:37.511Z,41.40
2018-11-28T11:00:08.582Z,42.30
2018-11-28T11:02:42.229Z,42.08
2018-11-28T11:05:15.913Z,45.50
2018-11-28T11:07:49.247Z,43.85
2018-11-28T11:10:22.702Z,44.53
2018-11-28T11:12:56.287Z,44.55
2018-11-28T11:15:24.398Z,43.23
2018-11-28T11:17:52.602Z,40.03
2018-11-28T11:20:20.711Z,41.98
2018-11-28T11:22:48.897Z,42.07
2018-11-28T11:25:16.991Z,42.33
2018-11-28T11:27:45.075Z,42.03
2018-11-28T11:30:13.178Z,44.75
2018-11-28T11:32:41.362Z,44.42
2018-11-28T11:35:09.862Z,43.23
2018-11-28T11:37:37.967Z,40.80
2018-11-28T11:40:09.106Z,40.35
2018-11-28T11:42:37.202Z,41.97
2018-11-28T11:45:06.907Z,41.77
2018-11-28T11:47:35.371Z,42.67
2018-11-28T11:50:03.832Z,42.15
2018-11-28T11:52:31.990Z,43.63
2018-11-28T11:55:00.072Z,40.58
2018-11-28T11:57:28.175Z,41.50
2018-11-28T11:59:56.458Z,40.80
2018-11-28T12:02:24.546Z,39.20
2018-11-28T12:04:52.643Z,40.50
2018-11-28T12:07:20.767Z,42.38
2018-11-28T12:09:48.892Z,39.03
2018-11-28T12:12:17.103Z,40.10
2018-11-28T12:14:45.258Z,38.88
2018-11-28T12:17:13.366Z,37.60
2018-11-28T12:19:41.444Z,39.88
2018-11-28T12:22:09.542Z,41.88
2018-11-28T12:24:37.746Z,42.80
2018-11-28T12:27:06.145Z,40.52
2018-11-28T12:29:34.226Z,42.38
2018-11-28T12:32:02.358Z,42.50
2018-11-28T12:34:30.480Z,39.50
2018-11-28T12:36:58.585Z,41.23
2018-11-28T12:39:26.683Z,41.47
2018-11-28T12:41:54.766Z,41.02
2018-11-28T12:44:22.979Z,41.83
2018-11-28T12:46:51.186Z,40.25
2018-11-28T12:49:19.375Z,42.85
2018-11-28T12:51:47.480Z,41.20
2018-11-28T12:54:16.388Z,43.52
2018-11-28T12:56:44.608Z,41.30
2018-11-28T12:59:12.785Z,42.45
2018-11-28T13:01:40.925Z,43.60
2018-11-28T13:04:09.013Z,41.70
2018-11-28T13:06:37.229Z,44.30
2018-11-28T13:09:06.775Z,44.38
2018-11-28T13:11:34.939Z,43.35
2018-11-28T13:14:06.979Z,41.20
2018-11-28T13:16:35.110Z,42.95
2018-11-28T13:19:03.339Z,42.90
2018-11-28T13:21:31.371Z,44.80
2018-11-28T13:23:59.585Z,40.03
2018-11-28T13:26:27.682Z,41.28
2018-11-28T13:28:55.798Z,42.60
2018-11-28T13:31:23.910Z,42.15
2018-11-28T13:33:52.224Z,43.28
2018-11-28T13:36:22.640Z,41.15
2018-11-28T13:38:48.628Z,38.17
2018-11-28T13:41:16.615Z,41.55
2018-11-28T13:43:44.744Z,40.33
2018-11-28T13:46:12.917Z,40.03
2018-11-28T13:48:41.005Z,38.70
2018-11-28T13:51:09.135Z,39.08
2018-11-28T13:53:37.225Z,40.12
2018-11-28T13:58:34.004Z,39.60
2018-11-28T14:01:02.202Z,39.23
2018-11-28T14:03:30.443Z,37.53
2018-11-28T14:05:58.628Z,37.95
2018-11-28T14:08:26.754Z,38.58
2018-11-28T14:10:54.907Z,39.80
2018-11-28T14:13:22.996Z,38.85
2018-11-28T14:15:51.126Z,37.78
2018-11-28T14:18:19.849Z,39.45
2018-11-28T14:20:48.455Z,39.15
2018-11-28T14:23:16.567Z,38.92
2018-11-28T14:25:44.661Z,38.05
2018-11-28T14:28:13.039Z,36.83
2018-11-28T14:30:41.655Z,39.03
2018-11-28T14:33:09.860Z,38.70
2018-11-28T14:35:38.027Z,36.48
2018-11-28T14:38:06.195Z,36.35
2018-11-28T14:40:34.674Z,36.03
2018-11-28T14:43:03.011Z,36.95
2018-11-28T14:45:31.715Z,38.73
2018-11-28T14:47:59.885Z,35.73
2018-11-28T14:50:28.687Z,36.77
2018-11-28T14:52:59.831Z,37.90
2018-11-28T14:55:29.465Z,37.38
2018-11-28T14:57:57.722Z,37.23
2018-11-28T15:00:27.889Z,36.98
2018-11-28T15:02:59.084Z,37.95
2018-11-28T15:05:31.699Z,35.63
2018-11-28T15:08:02.174Z,37.98
2018-11-28T15:10:43.040Z,36.73
2018-11-28T15:13:11.805Z,36.77
2018-11-28T15:15:39.984Z,37.38
2018-11-28T15:18:08.238Z,38.10
2018-11-28T15:20:36.331Z,38.95
2018-11-28T15:23:04.554Z,37.63
2018-11-28T15:25:32.672Z,38.78
2018-11-28T15:28:00.787Z,36.65
2018-11-28T15:30:28.914Z,38.10
2018-11-28T15:32:57.016Z,40.80
2018-11-28T15:35:25.162Z,40.65
2018-11-28T15:37:53.334Z,38.58
2018-11-28T15:40:21.479Z,37.85
2018-11-28T15:42:49.702Z,40.80
2018-11-28T15:45:17.808Z,37.93
2018-11-28T15:47:46.025Z,36.73
2018-11-28T15:50:14.238Z,40.48
2018-11-28T15:52:42.392Z,40.48
2018-11-28T15:55:11.960Z,38.75
2018-11-28T15:57:40.079Z,38.28
2018-11-28T16:00:13.417Z,38.00
2018-11-28T16:02:42.656Z,39.65
2018-11-28T16:05:10.824Z,37.30
2018-11-28T16:07:38.946Z,36.58
2018-11-28T16:10:15.487Z,37.65
2018-11-28T16:12:44.247Z,40.60
2018-11-28T16:15:17.196Z,38.55
2018-11-28T16:17:45.559Z,39.90
2018-11-28T16:20:13.646Z,38.65
2018-11-28T16:22:41.808Z,37.53
2018-11-28T16:25:11.227Z,36.73
2018-11-28T16:27:41.775Z,38.83
2018-11-28T16:30:11.683Z,37.00
2018-11-28T16:32:40.156Z,35.17
2018-11-28T16:35:10.711Z,36.70
2018-11-28T16:37:38.950Z,33.95
2018-11-28T16:40:10.122Z,34.05
2018-11-28T16:42:38.387Z,41.18
2018-11-28T16:45:24.151Z,40.70
2018-11-28T16:47:52.242Z,39.23
2018-11-28T16:50:20.335Z,34.20
2018-11-28T16:52:48.439Z,34.90
2018-11-28T16:55:17.429Z,36.08
2018-11-28T16:57:47.069Z,35.52
2018-11-28T17:00:17.248Z,36.53
2018-11-28T17:02:45.407Z,38.10
2018-11-28T17:05:15.578Z,37.50
2018-11-28T17:07:43.780Z,37.00
2018-11-28T17:10:13.949Z,37.40
2018-11-28T17:12:42.378Z,34.75
2018-11-28T17:15:12.797Z,36.30
2018-11-28T17:17:41.027Z,37.10
2018-11-28T17:20:25.173Z,38.83
2018-11-28T17:22:54.643Z,37.17
2018-11-28T17:25:25.919Z,37.65
2018-11-28T17:27:54.136Z,34.10
2018-11-28T17:30:24.407Z,34.33
2018-11-28T17:32:52.539Z,34.08
2018-11-28T17:35:20.626Z,33.30
2018-11-28T17:37:48.818Z,35.45
2018-11-28T17:40:18.012Z,35.63
2018-11-28T17:42:47.366Z,34.98
2018-11-28T17:45:16.417Z,36.40
2018-11-28T17:47:44.506Z,33.10
2018-11-28T17:50:14.976Z,33.80
2018-11-28T17:52:45.088Z,32.85
2018-11-28T17:55:14.638Z,33.25
2018-11-28T17:57:42.788Z,32.85
2018-11-28T18:00:12.230Z,34.67
2018-11-28T18:02:40.678Z,32.42
2018-11-28T18:05:09.858Z,33.65
2018-11-28T18:07:38.027Z,32.97
2018-11-28T18:10:11.934Z,31.27
2018-11-28T18:12:50.215Z,32.45
2018-11-28T18:15:18.314Z,35.00
2018-11-28T18:17:46.580Z,38.33
2018-11-28T18:20:14.646Z,39.45
2018-11-28T18:22:43.635Z,36.30
2018-11-28T18:25:11.775Z,32.85
2018-11-28T18:27:39.898Z,37.30
2018-11-28T18:30:09.902Z,34.45
2018-11-28T18:32:38.094Z,32.60
2018-11-28T18:35:07.681Z,30.12
2018-11-28T18:37:35.829Z,30.72
2018-11-28T18:40:04.743Z,30.35
2018-11-28T18:42:32.853Z,28.25
2018-11-28T18:45:00.972Z,30.77
2018-11-28T18:47:29.094Z,28.27
2018-11-28T18:49:57.219Z,29.25
2018-11-28T18:52:26.356Z,25.17
2018-11-28T18:54:54.526Z,27.20
2018-11-28T18:57:22.832Z,29.60
2018-11-28T18:59:51.015Z,29.25
2018-11-28T19:02:20.170Z,29.33
2018-11-28T19:04:48.393Z,27.67
2018-11-28T19:07:16.563Z,27.95
2018-11-28T19:09:47.909Z,28.40
2018-11-28T19:12:16.094Z,26.90
2018-11-28T19:14:44.631Z,27.35
2018-11-28T19:17:12.376Z,27.25
2018-11-28T19:19:40.676Z,26.35
2018-11-28T19:22:08.742Z,26.75
2018-11-28T19:24:36.959Z,28.67
2018-11-28T19:27:05.154Z,28.12
2018-11-28T19:29:33.310Z,29.17
2018-11-28T19:32:01.535Z,28.73
2018-11-28T19:34:29.645Z,29.75
2018-11-28T19:36:57.799Z,30.97
2018-11-28T19:39:25.899Z,31.65
2018-11-28T19:41:54.138Z,30.40
2018-11-28T19:44:22.236Z,29.77
2018-11-28T19:46:50.417Z,31.93
2018-11-28T19:49:18.502Z,30.82
2018-11-28T19:51:46.623Z,34.38
2018-11-28T19:54:14.751Z,32.42
2018-11-28T19:56:42.850Z,33.00
2018-11-28T19:59:10.977Z,32.65
2018-11-28T20:01:39.079Z,30.88
2018-11-28T20:04:07.190Z,34.10
2018-11-28T20:06:35.308Z,34.35
2018-11-28T20:09:03.626Z,35.13
2018-11-28T20:11:32.105Z,35.03
2018-11-28T20:13:59.874Z,34.98
2018-11-28T20:16:27.984Z,33.35
2018-11-28T20:18:56.083Z,34.95
2018-11-28T20:21:24.202Z,35.23
2018-11-28T20:23:52.367Z,37.48
2018-11-28T20:26:20.614Z,37.20
2018-11-28T20:28:48.768Z,41.70
2018-11-28T20:31:17.042Z,54.50
2018-11-28T20:33:45.250Z,59.25
2018-11-28T20:36:13.444Z,43.83
2018-11-28T20:38:41.580Z,47.23
2018-11-28T20:41:09.995Z,42.13
2018-11-28T20:43:38.086Z,45.80
2018-11-28T20:46:10.588Z,36.17
2018-11-28T20:48:38.763Z,34.83
2018-11-28T20:51:06.907Z,36.80
2018-11-28T20:53:35.046Z,37.45
2018-11-28T20:56:03.133Z,42.20
2018-11-28T20:58:31.223Z,43.25
2018-11-28T21:00:59.341Z,42.70
2018-11-28T21:03:27.501Z,45.35
2018-11-28T21:05:55.662Z,49.67
2018-11-28T21:08:23.846Z,43.42
2018-11-28T21:10:51.970Z,45.48
2018-11-28T21:13:20.110Z,38.13
2018-11-28T21:15:48.246Z,38.40
2018-11-28T21:18:17.170Z,44.10
2018-11-28T21:20:46.137Z,41.77
2018-11-28T21:23:16.655Z,42.15
2018-11-28T21:25:44.747Z,38.40
2018-11-28T21:28:12.856Z,38.63
2018-11-28T21:30:40.961Z,39.77
2018-11-28T21:33:09.858Z,37.42
2018-11-28T21:35:39.467Z,36.42
2018-11-28T21:38:08.363Z,38.30
2018-11-28T21:40:36.493Z,35.88
2018-11-28T21:43:05.039Z,35.17
2018-11-28T21:45:33.158Z,35.75
2018-11-28T21:48:01.273Z,38.38
2018-11-28T21:50:29.386Z,36.83
2018-11-28T21:52:57.541Z,36.60
2018-11-28T21:55:25.674Z,37.70
2018-11-28T21:57:53.838Z,37.45
2018-11-28T22:00:23.146Z,41.83
2018-11-28T22:02:51.356Z,39.25
2018-11-28T22:05:19.553Z,39.78
2018-11-28T22:07:47.641Z,39.77
2018-11-28T22:10:24.479Z,40.78
2018-11-28T22:12:53.097Z,44.70
2018-11-28T22:15:21.186Z,42.88
2018-11-28T22:17:51.593Z,44.43
2018-11-28T22:20:19.736Z,47.65
2018-11-28T22:22:47.947Z,52.45
2018-11-28T22:25:17.180Z,49.10
2018-11-28T22:27:45.315Z,47.27
2018-11-28T22:30:16.414Z,46.70
2018-11-28T22:32:44.791Z,41.90
2018-11-28T22:35:12.893Z,43.80
2018-11-28T22:37:40.985Z,44.88
2018-11-28T22:40:13.310Z,48.68
2018-11-28T22:42:41.394Z,48.78
2018-11-28T22:45:27.166Z,49.50
2018-11-28T22:47:55.255Z,49.33
2018-11-28T22:50:23.367Z,54.77
2018-11-28T22:52:51.491Z,47.15
2018-11-28T22:55:19.711Z,44.03
2018-11-28T22:57:47.818Z,44.08
2018-11-28T23:00:38.742Z,46.68
2018-11-28T23:03:09.310Z,45.98
2018-11-28T23:05:44.318Z,45.75
2018-11-28T23:08:13.698Z,48.95
2018-11-28T23:10:41.834Z,47.48
2018-11-28T23:13:11.090Z,42.48
2018-11-28T23:15:39.283Z,45.35
2018-11-28T23:18:08.465Z,46.70
2018-11-28T23:20:36.648Z,51.70
2018-11-28T23:23:05.220Z,47.48
2018-11-28T23:25:33.346Z,49.42
2018-11-28T23:28:01.502Z,48.23
2018-11-28T23:30:29.949Z,50.05
2018-11-28T23:32:58.188Z,49.77
2018-11-28T23:35:26.310Z,51.42
2018-11-28T23:37:54.398Z,54.60
2018-11-28T23:40:24.200Z,48.15
2018-11-28T23:42:52.990Z,51.15
2018-11-28T23:45:21.348Z,52.03
2018-11-28T23:47:49.695Z,51.25
2018-11-28T23:50:21.567Z,55.80
2018-11-28T23:52:50.382Z,53.08
2018-11-28T23:55:23.229Z,51.95
2018-11-28T23:57:51.554Z,51.13
